sensor_id;sensor_type;location;lat;lon;timestamp;P1;durP1;ratioP1;P2;durP2;ratioP2
30539;SDS011;17321;46.312;4.776;2023-08-01T00:00:03;5.93;;;2.75;;
30539;SDS011;17321;46.312;4.776;2023-08-01T00:02:30;4.53;;;3.13;;
30539;SDS011;17321;46.312;4.776;2023-08-01T00:04:57;6.82;;;3.72;;
30539;SDS011;17321;46.312;4.776;2023-08-01T00:07:23;5.13;;;3.05;;
30539;SDS011;17321;46.312;4.776;2023-08-01T00:09:49;7.85;;;3.15;;
30539;SDS011;17321;46.312;4.776;2023-08-01T00:12:15;4.00;;;2.95;;
30539;SDS011;17321;46.312;4.776;2023-08-01T00:14:41;8.48;;;3.25;;
30539;SDS011;17321;46.312;4.776;2023-08-01T00:17:08;4.88;;;2.88;;
30539;SDS011;17321;46.312;4.776;2023-08-01T00:19:34;6.03;;;3.67;;
30539;SDS011;17321;46.312;4.776;2023-08-01T00:22:00;5.20;;;2.88;;
30539;SDS011;17321;46.312;4.776;2023-08-01T00:24:26;4.65;;;3.20;;
30539;SDS011;17321;46.312;4.776;2023-08-01T00:26:52;5.78;;;3.80;;
30539;SDS011;17321;46.312;4.776;2023-08-01T00:29:20;10.32;;;3.70;;
30539;SDS011;17321;46.312;4.776;2023-08-01T00:31:46;7.35;;;3.58;;
30539;SDS011;17321;46.312;4.776;2023-08-01T00:34:13;6.43;;;3.67;;
30539;SDS011;17321;46.312;4.776;2023-08-01T00:36:39;6.15;;;3.58;;
30539;SDS011;17321;46.312;4.776;2023-08-01T00:39:05;9.77;;;3.40;;
30539;SDS011;17321;46.312;4.776;2023-08-01T00:41:31;6.00;;;3.60;;
30539;SDS011;17321;46.312;4.776;2023-08-01T00:43:57;6.47;;;3.20;;
30539;SDS011;17321;46.312;4.776;2023-08-01T00:46:23;11.75;;;4.53;;
30539;SDS011;17321;46.312;4.776;2023-08-01T00:48:50;5.25;;;3.03;;
30539;SDS011;17321;46.312;4.776;2023-08-01T00:51:16;4.13;;;3.08;;
30539;SDS011;17321;46.312;4.776;2023-08-01T00:53:43;6.85;;;3.50;;
30539;SDS011;17321;46.312;4.776;2023-08-01T00:56:11;6.32;;;3.47;;
30539;SDS011;17321;46.312;4.776;2023-08-01T00:58:38;9.20;;;3.90;;
30539;SDS011;17321;46.312;4.776;2023-08-01T01:01:04;8.95;;;3.58;;
30539;SDS011;17321;46.312;4.776;2023-08-01T01:03:30;4.85;;;3.38;;
30539;SDS011;17321;46.312;4.776;2023-08-01T01:06:14;9.90;;;4.32;;
30539;SDS011;17321;46.312;4.776;2023-08-01T01:08:43;12.93;;;4.72;;
30539;SDS011;17321;46.312;4.776;2023-08-01T01:11:10;9.73;;;3.85;;
30539;SDS011;17321;46.312;4.776;2023-08-01T01:13:36;6.25;;;3.30;;
30539;SDS011;17321;46.312;4.776;2023-08-01T01:16:02;4.47;;;3.60;;
30539;SDS011;17321;46.312;4.776;2023-08-01T01:18:28;7.22;;;3.40;;
30539;SDS011;17321;46.312;4.776;2023-08-01T01:20:54;6.68;;;3.50;;
30539;SDS011;17321;46.312;4.776;2023-08-01T01:23:20;7.05;;;3.35;;
30539;SDS011;17321;46.312;4.776;2023-08-01T01:25:47;7.90;;;3.53;;
30539;SDS011;17321;46.312;4.776;2023-08-01T01:28:15;5.78;;;3.92;;
30539;SDS011;17321;46.312;4.776;2023-08-01T01:30:42;6.75;;;4.20;;
30539;SDS011;17321;46.312;4.776;2023-08-01T01:33:08;5.28;;;3.50;;
30539;SDS011;17321;46.312;4.776;2023-08-01T01:35:35;9.65;;;3.20;;
30539;SDS011;17321;46.312;4.776;2023-08-01T01:38:02;5.93;;;3.28;;
30539;SDS011;17321;46.312;4.776;2023-08-01T01:40:31;5.72;;;3.30;;
30539;SDS011;17321;46.312;4.776;2023-08-01T01:42:58;5.15;;;3.33;;
30539;SDS011;17321;46.312;4.776;2023-08-01T01:45:24;5.85;;;3.70;;
30539;SDS011;17321;46.312;4.776;2023-08-01T01:47:50;6.57;;;3.45;;
30539;SDS011;17321;46.312;4.776;2023-08-01T01:50:16;4.03;;;3.13;;
30539;SDS011;17321;46.312;4.776;2023-08-01T01:52:43;6.82;;;3.83;;
30539;SDS011;17321;46.312;4.776;2023-08-01T01:55:09;9.10;;;3.63;;
30539;SDS011;17321;46.312;4.776;2023-08-01T01:57:35;5.38;;;3.33;;
30539;SDS011;17321;46.312;4.776;2023-08-01T02:00:05;5.30;;;3.58;;
30539;SDS011;17321;46.312;4.776;2023-08-01T02:02:31;4.10;;;3.50;;
30539;SDS011;17321;46.312;4.776;2023-08-01T02:04:57;10.35;;;3.30;;
30539;SDS011;17321;46.312;4.776;2023-08-01T02:07:23;5.25;;;3.38;;
30539;SDS011;17321;46.312;4.776;2023-08-01T02:09:49;7.05;;;4.25;;
30539;SDS011;17321;46.312;4.776;2023-08-01T02:12:15;7.90;;;3.85;;
30539;SDS011;17321;46.312;4.776;2023-08-01T02:14:41;7.65;;;3.85;;
30539;SDS011;17321;46.312;4.776;2023-08-01T02:17:07;8.93;;;4.10;;
30539;SDS011;17321;46.312;4.776;2023-08-01T02:19:34;5.60;;;3.25;;
30539;SDS011;17321;46.312;4.776;2023-08-01T02:22:00;6.55;;;3.97;;
30539;SDS011;17321;46.312;4.776;2023-08-01T02:24:26;14.85;;;3.97;;
30539;SDS011;17321;46.312;4.776;2023-08-01T02:26:52;7.20;;;3.70;;
30539;SDS011;17321;46.312;4.776;2023-08-01T02:29:18;7.00;;;3.80;;
30539;SDS011;17321;46.312;4.776;2023-08-01T02:31:44;6.25;;;3.65;;
30539;SDS011;17321;46.312;4.776;2023-08-01T02:34:10;12.18;;;4.47;;
30539;SDS011;17321;46.312;4.776;2023-08-01T02:36:36;5.35;;;3.90;;
30539;SDS011;17321;46.312;4.776;2023-08-01T02:39:02;5.38;;;3.97;;
30539;SDS011;17321;46.312;4.776;2023-08-01T02:41:28;9.68;;;3.30;;
30539;SDS011;17321;46.312;4.776;2023-08-01T02:43:55;5.65;;;3.90;;
30539;SDS011;17321;46.312;4.776;2023-08-01T02:46:21;7.22;;;4.13;;
30539;SDS011;17321;46.312;4.776;2023-08-01T02:48:48;6.43;;;3.80;;
30539;SDS011;17321;46.312;4.776;2023-08-01T02:51:14;5.72;;;3.88;;
30539;SDS011;17321;46.312;4.776;2023-08-01T02:53:40;5.28;;;3.90;;
30539;SDS011;17321;46.312;4.776;2023-08-01T02:56:06;5.38;;;3.67;;
30539;SDS011;17321;46.312;4.776;2023-08-01T02:58:35;6.28;;;4.00;;
30539;SDS011;17321;46.312;4.776;2023-08-01T03:01:01;6.22;;;4.18;;
30539;SDS011;17321;46.312;4.776;2023-08-01T03:03:27;8.45;;;3.80;;
30539;SDS011;17321;46.312;4.776;2023-08-01T03:05:53;9.70;;;3.63;;
30539;SDS011;17321;46.312;4.776;2023-08-01T03:08:19;6.53;;;3.88;;
30539;SDS011;17321;46.312;4.776;2023-08-01T03:10:45;5.75;;;3.72;;
30539;SDS011;17321;46.312;4.776;2023-08-01T03:13:12;4.38;;;3.83;;
30539;SDS011;17321;46.312;4.776;2023-08-01T03:15:38;9.32;;;4.28;;
30539;SDS011;17321;46.312;4.776;2023-08-01T03:18:04;6.68;;;4.30;;
30539;SDS011;17321;46.312;4.776;2023-08-01T03:20:30;7.20;;;4.18;;
30539;SDS011;17321;46.312;4.776;2023-08-01T03:22:56;7.03;;;3.83;;
30539;SDS011;17321;46.312;4.776;2023-08-01T03:25:22;6.10;;;3.60;;
30539;SDS011;17321;46.312;4.776;2023-08-01T03:27:48;6.80;;;3.78;;
30539;SDS011;17321;46.312;4.776;2023-08-01T03:30:14;10.98;;;4.47;;
30539;SDS011;17321;46.312;4.776;2023-08-01T03:32:40;7.60;;;3.55;;
30539;SDS011;17321;46.312;4.776;2023-08-01T03:35:06;8.98;;;3.97;;
30539;SDS011;17321;46.312;4.776;2023-08-01T03:37:33;7.97;;;3.70;;
30539;SDS011;17321;46.312;4.776;2023-08-01T03:39:59;5.32;;;3.83;;
30539;SDS011;17321;46.312;4.776;2023-08-01T03:42:25;6.75;;;3.53;;
30539;SDS011;17321;46.312;4.776;2023-08-01T03:44:51;4.82;;;3.78;;
30539;SDS011;17321;46.312;4.776;2023-08-01T03:47:17;5.50;;;3.63;;
30539;SDS011;17321;46.312;4.776;2023-08-01T03:49:43;7.93;;;3.80;;
30539;SDS011;17321;46.312;4.776;2023-08-01T03:52:09;7.28;;;3.90;;
30539;SDS011;17321;46.312;4.776;2023-08-01T03:54:35;5.60;;;3.95;;
30539;SDS011;17321;46.312;4.776;2023-08-01T03:57:02;5.72;;;3.53;;
30539;SDS011;17321;46.312;4.776;2023-08-01T03:59:28;7.93;;;3.65;;
30539;SDS011;17321;46.312;4.776;2023-08-01T04:01:54;5.28;;;3.90;;
30539;SDS011;17321;46.312;4.776;2023-08-01T04:04:20;8.52;;;4.00;;
30539;SDS011;17321;46.312;4.776;2023-08-01T04:06:46;5.57;;;3.70;;
30539;SDS011;17321;46.312;4.776;2023-08-01T04:09:12;7.10;;;4.32;;
30539;SDS011;17321;46.312;4.776;2023-08-01T04:11:39;6.45;;;3.45;;
30539;SDS011;17321;46.312;4.776;2023-08-01T04:14:05;4.88;;;3.63;;
30539;SDS011;17321;46.312;4.776;2023-08-01T04:16:31;13.15;;;4.28;;
30539;SDS011;17321;46.312;4.776;2023-08-01T04:18:57;5.22;;;3.60;;
30539;SDS011;17321;46.312;4.776;2023-08-01T04:21:23;6.38;;;3.35;;
30539;SDS011;17321;46.312;4.776;2023-08-01T04:23:49;6.75;;;3.60;;
30539;SDS011;17321;46.312;4.776;2023-08-01T04:26:15;6.90;;;3.38;;
30539;SDS011;17321;46.312;4.776;2023-08-01T04:28:41;7.60;;;4.47;;
30539;SDS011;17321;46.312;4.776;2023-08-01T04:31:07;11.35;;;4.22;;
30539;SDS011;17321;46.312;4.776;2023-08-01T04:33:33;5.85;;;3.90;;
30539;SDS011;17321;46.312;4.776;2023-08-01T04:36:00;9.05;;;4.22;;
30539;SDS011;17321;46.312;4.776;2023-08-01T04:38:26;6.85;;;4.40;;
30539;SDS011;17321;46.312;4.776;2023-08-01T04:40:53;7.32;;;4.07;;
30539;SDS011;17321;46.312;4.776;2023-08-01T04:43:19;9.38;;;3.72;;
30539;SDS011;17321;46.312;4.776;2023-08-01T04:45:45;6.95;;;3.65;;
30539;SDS011;17321;46.312;4.776;2023-08-01T04:48:11;9.02;;;4.20;;
30539;SDS011;17321;46.312;4.776;2023-08-01T04:50:37;6.50;;;3.72;;
30539;SDS011;17321;46.312;4.776;2023-08-01T04:53:03;7.65;;;4.18;;
30539;SDS011;17321;46.312;4.776;2023-08-01T04:55:31;6.53;;;3.88;;
30539;SDS011;17321;46.312;4.776;2023-08-01T04:57:57;14.00;;;3.83;;
30539;SDS011;17321;46.312;4.776;2023-08-01T05:00:23;4.43;;;3.65;;
30539;SDS011;17321;46.312;4.776;2023-08-01T05:02:49;3.72;;;3.10;;
30539;SDS011;17321;46.312;4.776;2023-08-01T05:05:15;10.10;;;3.67;;
30539;SDS011;17321;46.312;4.776;2023-08-01T05:07:42;4.28;;;3.17;;
30539;SDS011;17321;46.312;4.776;2023-08-01T05:10:08;4.55;;;2.65;;
30539;SDS011;17321;46.312;4.776;2023-08-01T05:12:34;3.50;;;3.10;;
30539;SDS011;17321;46.312;4.776;2023-08-01T05:15:00;6.72;;;3.10;;
30539;SDS011;17321;46.312;4.776;2023-08-01T05:17:26;4.43;;;3.25;;
30539;SDS011;17321;46.312;4.776;2023-08-01T05:19:52;6.55;;;3.10;;
30539;SDS011;17321;46.312;4.776;2023-08-01T05:22:20;7.50;;;3.92;;
30539;SDS011;17321;46.312;4.776;2023-08-01T05:24:46;3.95;;;3.25;;
30539;SDS011;17321;46.312;4.776;2023-08-01T05:27:12;10.88;;;3.83;;
30539;SDS011;17321;46.312;4.776;2023-08-01T05:29:38;5.75;;;3.20;;
30539;SDS011;17321;46.312;4.776;2023-08-01T05:32:05;3.67;;;2.80;;
30539;SDS011;17321;46.312;4.776;2023-08-01T05:34:31;5.35;;;3.10;;
30539;SDS011;17321;46.312;4.776;2023-08-01T05:36:57;5.13;;;3.22;;
30539;SDS011;17321;46.312;4.776;2023-08-01T05:39:23;3.75;;;2.95;;
30539;SDS011;17321;46.312;4.776;2023-08-01T05:41:49;4.78;;;3.13;;
30539;SDS011;17321;46.312;4.776;2023-08-01T05:44:16;4.40;;;3.10;;
30539;SDS011;17321;46.312;4.776;2023-08-01T05:46:42;7.22;;;3.08;;
30539;SDS011;17321;46.312;4.776;2023-08-01T05:49:08;6.53;;;3.67;;
30539;SDS011;17321;46.312;4.776;2023-08-01T05:51:34;4.57;;;2.92;;
30539;SDS011;17321;46.312;4.776;2023-08-01T05:54:00;6.13;;;3.22;;
30539;SDS011;17321;46.312;4.776;2023-08-01T05:56:26;5.30;;;3.10;;
30539;SDS011;17321;46.312;4.776;2023-08-01T05:58:52;4.68;;;3.28;;
30539;SDS011;17321;46.312;4.776;2023-08-01T06:01:18;6.60;;;2.63;;
30539;SDS011;17321;46.312;4.776;2023-08-01T06:03:44;4.97;;;3.35;;
30539;SDS011;17321;46.312;4.776;2023-08-01T06:06:10;4.72;;;2.88;;
30539;SDS011;17321;46.312;4.776;2023-08-01T06:08:37;8.98;;;3.42;;
30539;SDS011;17321;46.312;4.776;2023-08-01T06:11:03;6.35;;;2.83;;
30539;SDS011;17321;46.312;4.776;2023-08-01T06:13:29;8.10;;;2.92;;
30539;SDS011;17321;46.312;4.776;2023-08-01T06:15:55;2.72;;;2.53;;
30539;SDS011;17321;46.312;4.776;2023-08-01T06:18:21;4.15;;;2.42;;
30539;SDS011;17321;46.312;4.776;2023-08-01T06:20:48;7.63;;;2.97;;
30539;SDS011;17321;46.312;4.776;2023-08-01T06:23:14;8.65;;;3.00;;
30539;SDS011;17321;46.312;4.776;2023-08-01T06:25:40;3.42;;;2.60;;
30539;SDS011;17321;46.312;4.776;2023-08-01T06:28:06;3.40;;;2.53;;
30539;SDS011;17321;46.312;4.776;2023-08-01T06:30:32;5.97;;;2.50;;
30539;SDS011;17321;46.312;4.776;2023-08-01T06:32:58;4.68;;;2.72;;
30539;SDS011;17321;46.312;4.776;2023-08-01T06:35:24;8.73;;;3.38;;
30539;SDS011;17321;46.312;4.776;2023-08-01T06:37:50;5.45;;;3.65;;
30539;SDS011;17321;46.312;4.776;2023-08-01T06:40:16;8.63;;;4.10;;
30539;SDS011;17321;46.312;4.776;2023-08-01T06:42:43;6.35;;;3.80;;
30539;SDS011;17321;46.312;4.776;2023-08-01T06:45:09;10.95;;;4.03;;
30539;SDS011;17321;46.312;4.776;2023-08-01T06:47:35;4.60;;;3.75;;
30539;SDS011;17321;46.312;4.776;2023-08-01T06:50:01;9.32;;;3.75;;
30539;SDS011;17321;46.312;4.776;2023-08-01T06:52:27;4.53;;;3.08;;
30539;SDS011;17321;46.312;4.776;2023-08-01T06:54:53;5.95;;;3.17;;
30539;SDS011;17321;46.312;4.776;2023-08-01T06:57:20;3.95;;;2.97;;
30539;SDS011;17321;46.312;4.776;2023-08-01T06:59:46;8.05;;;3.92;;
30539;SDS011;17321;46.312;4.776;2023-08-01T07:02:12;6.00;;;3.85;;
30539;SDS011;17321;46.312;4.776;2023-08-01T07:04:38;5.93;;;3.67;;
30539;SDS011;17321;46.312;4.776;2023-08-01T07:07:04;7.97;;;3.70;;
30539;SDS011;17321;46.312;4.776;2023-08-01T07:09:30;8.43;;;3.22;;
30539;SDS011;17321;46.312;4.776;2023-08-01T07:11:56;8.20;;;3.63;;
30539;SDS011;17321;46.312;4.776;2023-08-01T07:14:23;3.03;;;2.33;;
30539;SDS011;17321;46.312;4.776;2023-08-01T07:16:49;6.40;;;2.78;;
30539;SDS011;17321;46.312;4.776;2023-08-01T07:19:15;3.83;;;2.53;;
30539;SDS011;17321;46.312;4.776;2023-08-01T07:21:41;11.45;;;3.83;;
30539;SDS011;17321;46.312;4.776;2023-08-01T07:24:09;4.23;;;2.90;;
30539;SDS011;17321;46.312;4.776;2023-08-01T07:26:35;7.13;;;3.03;;
30539;SDS011;17321;46.312;4.776;2023-08-01T07:29:01;9.95;;;3.20;;
30539;SDS011;17321;46.312;4.776;2023-08-01T07:31:27;6.65;;;2.70;;
30539;SDS011;17321;46.312;4.776;2023-08-01T07:33:53;4.65;;;2.70;;
30539;SDS011;17321;46.312;4.776;2023-08-01T07:36:20;2.22;;;2.03;;
30539;SDS011;17321;46.312;4.776;2023-08-01T07:38:46;5.03;;;2.72;;
30539;SDS011;17321;46.312;4.776;2023-08-01T07:41:12;5.00;;;2.65;;
30539;SDS011;17321;46.312;4.776;2023-08-01T07:43:39;5.68;;;3.22;;
30539;SDS011;17321;46.312;4.776;2023-08-01T07:46:05;3.55;;;2.30;;
30539;SDS011;17321;46.312;4.776;2023-08-01T07:48:33;4.57;;;2.53;;
30539;SDS011;17321;46.312;4.776;2023-08-01T07:50:59;2.28;;;2.08;;
30539;SDS011;17321;46.312;4.776;2023-08-01T07:53:26;7.65;;;1.83;;
30539;SDS011;17321;46.312;4.776;2023-08-01T07:55:52;3.50;;;1.90;;
30539;SDS011;17321;46.312;4.776;2023-08-01T07:58:18;4.80;;;2.22;;
30539;SDS011;17321;46.312;4.776;2023-08-01T08:00:45;3.40;;;1.88;;
30539;SDS011;17321;46.312;4.776;2023-08-01T08:03:11;2.38;;;1.70;;
30539;SDS011;17321;46.312;4.776;2023-08-01T08:05:37;4.05;;;2.28;;
30539;SDS011;17321;46.312;4.776;2023-08-01T08:08:04;3.03;;;1.60;;
30539;SDS011;17321;46.312;4.776;2023-08-01T08:10:30;3.13;;;2.08;;
30539;SDS011;17321;46.312;4.776;2023-08-01T08:12:56;1.88;;;1.65;;
30539;SDS011;17321;46.312;4.776;2023-08-01T08:15:22;4.43;;;1.58;;
30539;SDS011;17321;46.312;4.776;2023-08-01T08:17:49;3.05;;;1.55;;
30539;SDS011;17321;46.312;4.776;2023-08-01T08:20:15;3.58;;;1.92;;
30539;SDS011;17321;46.312;4.776;2023-08-01T08:22:41;2.22;;;1.15;;
30539;SDS011;17321;46.312;4.776;2023-08-01T08:25:08;1.65;;;1.33;;
30539;SDS011;17321;46.312;4.776;2023-08-01T08:27:34;2.47;;;1.10;;
30539;SDS011;17321;46.312;4.776;2023-08-01T08:30:00;1.88;;;1.13;;
30539;SDS011;17321;46.312;4.776;2023-08-01T08:32:26;1.33;;;1.15;;
30539;SDS011;17321;46.312;4.776;2023-08-01T08:34:52;1.48;;;1.10;;
30539;SDS011;17321;46.312;4.776;2023-08-01T08:37:18;2.33;;;1.27;;
30539;SDS011;17321;46.312;4.776;2023-08-01T08:39:44;3.40;;;1.40;;
30539;SDS011;17321;46.312;4.776;2023-08-01T08:42:10;2.75;;;1.17;;
30539;SDS011;17321;46.312;4.776;2023-08-01T08:44:41;1.90;;;1.23;;
30539;SDS011;17321;46.312;4.776;2023-08-01T08:47:08;2.20;;;1.08;;
30539;SDS011;17321;46.312;4.776;2023-08-01T08:49:36;1.45;;;1.10;;
30539;SDS011;17321;46.312;4.776;2023-08-01T08:52:02;5.60;;;1.33;;
30539;SDS011;17321;46.312;4.776;2023-08-01T08:54:29;3.08;;;1.67;;
30539;SDS011;17321;46.312;4.776;2023-08-01T08:56:56;1.25;;;1.00;;
30539;SDS011;17321;46.312;4.776;2023-08-01T08:59:22;1.13;;;1.02;;
30539;SDS011;17321;46.312;4.776;2023-08-01T09:01:48;1.73;;;1.10;;
30539;SDS011;17321;46.312;4.776;2023-08-01T09:04:14;1.60;;;1.30;;
30539;SDS011;17321;46.312;4.776;2023-08-01T09:06:44;2.17;;;1.13;;
30539;SDS011;17321;46.312;4.776;2023-08-01T09:09:11;1.48;;;1.25;;
30539;SDS011;17321;46.312;4.776;2023-08-01T09:11:42;4.35;;;1.17;;
30539;SDS011;17321;46.312;4.776;2023-08-01T09:14:09;3.25;;;1.08;;
30539;SDS011;17321;46.312;4.776;2023-08-01T09:16:36;2.08;;;0.73;;
30539;SDS011;17321;46.312;4.776;2023-08-01T09:19:02;0.88;;;0.88;;
30539;SDS011;17321;46.312;4.776;2023-08-01T09:21:31;1.15;;;0.93;;
30539;SDS011;17321;46.312;4.776;2023-08-01T09:24:13;1.13;;;0.95;;
30539;SDS011;17321;46.312;4.776;2023-08-01T09:29:05;4.05;;;1.00;;
30539;SDS011;17321;46.312;4.776;2023-08-01T09:31:33;0.80;;;0.80;;
30539;SDS011;17321;46.312;4.776;2023-08-01T09:34:00;3.05;;;0.93;;
30539;SDS011;17321;46.312;4.776;2023-08-01T09:36:26;1.10;;;0.85;;
30539;SDS011;17321;46.312;4.776;2023-08-01T09:38:57;5.45;;;0.82;;
30539;SDS011;17321;46.312;4.776;2023-08-01T09:41:24;1.20;;;0.77;;
30539;SDS011;17321;46.312;4.776;2023-08-01T09:43:50;2.08;;;1.25;;
30539;SDS011;17321;46.312;4.776;2023-08-01T09:46:17;2.45;;;0.85;;
30539;SDS011;17321;46.312;4.776;2023-08-01T09:48:43;0.90;;;0.90;;
30539;SDS011;17321;46.312;4.776;2023-08-01T09:51:10;0.70;;;0.70;;
30539;SDS011;17321;46.312;4.776;2023-08-01T09:53:49;0.88;;;0.70;;
30539;SDS011;17321;46.312;4.776;2023-08-01T09:56:18;2.17;;;0.80;;
30539;SDS011;17321;46.312;4.776;2023-08-01T09:58:46;5.70;;;0.90;;
30539;SDS011;17321;46.312;4.776;2023-08-01T10:01:13;1.75;;;1.00;;
30539;SDS011;17321;46.312;4.776;2023-08-01T10:03:40;1.02;;;0.95;;
30539;SDS011;17321;46.312;4.776;2023-08-01T10:06:10;1.70;;;0.98;;
30539;SDS011;17321;46.312;4.776;2023-08-01T10:08:37;1.27;;;0.93;;
30539;SDS011;17321;46.312;4.776;2023-08-01T10:11:05;1.65;;;1.00;;
30539;SDS011;17321;46.312;4.776;2023-08-01T10:13:31;1.70;;;0.80;;
30539;SDS011;17321;46.312;4.776;2023-08-01T10:15:58;1.98;;;0.93;;
30539;SDS011;17321;46.312;4.776;2023-08-01T10:18:25;1.17;;;0.80;;
30539;SDS011;17321;46.312;4.776;2023-08-01T10:20:51;3.03;;;0.85;;
30539;SDS011;17321;46.312;4.776;2023-08-01T10:23:18;0.57;;;0.57;;
30539;SDS011;17321;46.312;4.776;2023-08-01T10:25:45;1.80;;;0.80;;
30539;SDS011;17321;46.312;4.776;2023-08-01T10:28:11;4.22;;;0.85;;
30539;SDS011;17321;46.312;4.776;2023-08-01T10:30:37;1.55;;;0.77;;
30539;SDS011;17321;46.312;4.776;2023-08-01T10:33:03;1.13;;;0.60;;
30539;SDS011;17321;46.312;4.776;2023-08-01T10:35:36;1.50;;;0.75;;
30539;SDS011;17321;46.312;4.776;2023-08-01T10:38:03;0.73;;;0.70;;
30539;SDS011;17321;46.312;4.776;2023-08-01T10:40:36;0.88;;;0.68;;
30539;SDS011;17321;46.312;4.776;2023-08-01T10:43:02;0.70;;;0.70;;
30539;SDS011;17321;46.312;4.776;2023-08-01T10:45:28;0.60;;;0.60;;
30539;SDS011;17321;46.312;4.776;2023-08-01T10:48:05;0.55;;;0.55;;
30539;SDS011;17321;46.312;4.776;2023-08-01T10:50:32;0.60;;;0.60;;
30539;SDS011;17321;46.312;4.776;2023-08-01T10:53:02;1.27;;;0.80;;
30539;SDS011;17321;46.312;4.776;2023-08-01T10:55:38;1.33;;;0.70;;
30539;SDS011;17321;46.312;4.776;2023-08-01T10:58:04;2.03;;;0.90;;
30539;SDS011;17321;46.312;4.776;2023-08-01T11:00:30;4.40;;;0.70;;
30539;SDS011;17321;46.312;4.776;2023-08-01T11:02:56;0.90;;;0.50;;
30539;SDS011;17321;46.312;4.776;2023-08-01T11:05:22;7.35;;;0.88;;
30539;SDS011;17321;46.312;4.776;2023-08-01T11:07:57;0.73;;;0.50;;
30539;SDS011;17321;46.312;4.776;2023-08-01T11:10:30;0.40;;;0.40;;
30539;SDS011;17321;46.312;4.776;2023-08-01T11:12:57;0.40;;;0.40;;
30539;SDS011;17321;46.312;4.776;2023-08-01T11:15:23;1.90;;;0.40;;
30539;SDS011;17321;46.312;4.776;2023-08-01T11:17:53;1.55;;;0.60;;
30539;SDS011;17321;46.312;4.776;2023-08-01T11:20:20;0.77;;;0.50;;
30539;SDS011;17321;46.312;4.776;2023-08-01T11:25:16;1.85;;;0.85;;
30539;SDS011;17321;46.312;4.776;2023-08-01T11:27:42;0.75;;;0.52;;
30539;SDS011;17321;46.312;4.776;2023-08-01T11:30:08;0.50;;;0.50;;
30539;SDS011;17321;46.312;4.776;2023-08-01T11:32:35;1.48;;;0.80;;
30539;SDS011;17321;46.312;4.776;2023-08-01T11:35:02;1.00;;;0.90;;
30539;SDS011;17321;46.312;4.776;2023-08-01T11:37:28;2.85;;;0.93;;
30539;SDS011;17321;46.312;4.776;2023-08-01T11:39:55;1.10;;;1.00;;
30539;SDS011;17321;46.312;4.776;2023-08-01T11:42:21;1.20;;;1.00;;
30539;SDS011;17321;46.312;4.776;2023-08-01T11:44:47;1.42;;;1.33;;
30539;SDS011;17321;46.312;4.776;2023-08-01T11:47:14;3.13;;;1.40;;
30539;SDS011;17321;46.312;4.776;2023-08-01T11:49:47;1.42;;;1.15;;
30539;SDS011;17321;46.312;4.776;2023-08-01T11:52:23;1.13;;;1.02;;
30539;SDS011;17321;46.312;4.776;2023-08-01T11:54:50;2.45;;;1.00;;
30539;SDS011;17321;46.312;4.776;2023-08-01T11:57:16;2.78;;;1.05;;
30539;SDS011;17321;46.312;4.776;2023-08-01T11:59:51;1.42;;;1.00;;
30539;SDS011;17321;46.312;4.776;2023-08-01T12:04:48;2.30;;;1.00;;
30539;SDS011;17321;46.312;4.776;2023-08-01T12:07:14;1.30;;;1.20;;
30539;SDS011;17321;46.312;4.776;2023-08-01T12:09:41;1.45;;;1.20;;
30539;SDS011;17321;46.312;4.776;2023-08-01T12:12:08;1.92;;;1.30;;
30539;SDS011;17321;46.312;4.776;2023-08-01T12:14:43;1.95;;;1.02;;
30539;SDS011;17321;46.312;4.776;2023-08-01T12:17:10;1.35;;;1.05;;
30539;SDS011;17321;46.312;4.776;2023-08-01T12:19:36;1.50;;;1.40;;
30539;SDS011;17321;46.312;4.776;2023-08-01T12:22:02;2.17;;;1.40;;
30539;SDS011;17321;46.312;4.776;2023-08-01T12:24:28;1.73;;;1.30;;
30539;SDS011;17321;46.312;4.776;2023-08-01T12:26:54;1.40;;;1.30;;
30539;SDS011;17321;46.312;4.776;2023-08-01T12:29:20;0.93;;;0.90;;
30539;SDS011;17321;46.312;4.776;2023-08-01T12:31:46;6.53;;;1.05;;
30539;SDS011;17321;46.312;4.776;2023-08-01T12:34:13;1.30;;;1.17;;
30539;SDS011;17321;46.312;4.776;2023-08-01T12:36:40;2.00;;;1.00;;
30539;SDS011;17321;46.312;4.776;2023-08-01T12:39:06;1.67;;;1.30;;
30539;SDS011;17321;46.312;4.776;2023-08-01T12:41:36;2.45;;;1.33;;
30539;SDS011;17321;46.312;4.776;2023-08-01T12:44:02;2.30;;;1.35;;
30539;SDS011;17321;46.312;4.776;2023-08-01T12:46:28;8.95;;;1.73;;
30539;SDS011;17321;46.312;4.776;2023-08-01T12:48:54;2.03;;;1.83;;
30539;SDS011;17321;46.312;4.776;2023-08-01T12:51:20;1.60;;;1.50;;
30539;SDS011;17321;46.312;4.776;2023-08-01T12:53:46;2.95;;;1.15;;
30539;SDS011;17321;46.312;4.776;2023-08-01T12:56:12;1.65;;;1.50;;
30539;SDS011;17321;46.312;4.776;2023-08-01T12:58:38;7.63;;;1.50;;
30539;SDS011;17321;46.312;4.776;2023-08-01T13:01:05;1.73;;;1.63;;
30539;SDS011;17321;46.312;4.776;2023-08-01T13:03:31;2.83;;;1.52;;
30539;SDS011;17321;46.312;4.776;2023-08-01T13:05:58;4.40;;;1.42;;
30539;SDS011;17321;46.312;4.776;2023-08-01T13:08:24;2.55;;;1.52;;
30539;SDS011;17321;46.312;4.776;2023-08-01T13:10:50;1.58;;;1.17;;
30539;SDS011;17321;46.312;4.776;2023-08-01T13:13:17;1.60;;;1.30;;
30539;SDS011;17321;46.312;4.776;2023-08-01T13:15:43;2.88;;;1.70;;
30539;SDS011;17321;46.312;4.776;2023-08-01T13:18:09;3.75;;;1.45;;
30539;SDS011;17321;46.312;4.776;2023-08-01T13:20:35;3.65;;;1.63;;
30539;SDS011;17321;46.312;4.776;2023-08-01T13:23:01;5.38;;;1.20;;
30539;SDS011;17321;46.312;4.776;2023-08-01T13:25:29;9.88;;;1.40;;
30539;SDS011;17321;46.312;4.776;2023-08-01T13:27:55;1.92;;;1.45;;
30539;SDS011;17321;46.312;4.776;2023-08-01T13:30:21;8.40;;;1.27;;
30539;SDS011;17321;46.312;4.776;2023-08-01T13:32:47;2.00;;;1.00;;
30539;SDS011;17321;46.312;4.776;2023-08-01T13:35:14;5.63;;;1.48;;
30539;SDS011;17321;46.312;4.776;2023-08-01T13:37:40;3.30;;;1.50;;
30539;SDS011;17321;46.312;4.776;2023-08-01T13:40:06;1.50;;;1.10;;
30539;SDS011;17321;46.312;4.776;2023-08-01T13:42:34;2.47;;;1.50;;
30539;SDS011;17321;46.312;4.776;2023-08-01T13:45:00;4.18;;;1.38;;
30539;SDS011;17321;46.312;4.776;2023-08-01T13:47:26;4.25;;;1.40;;
30539;SDS011;17321;46.312;4.776;2023-08-01T13:49:52;3.95;;;1.83;;
30539;SDS011;17321;46.312;4.776;2023-08-01T13:52:18;2.40;;;1.50;;
30539;SDS011;17321;46.312;4.776;2023-08-01T13:54:44;4.18;;;1.85;;
30539;SDS011;17321;46.312;4.776;2023-08-01T13:57:10;1.35;;;1.25;;
30539;SDS011;17321;46.312;4.776;2023-08-01T13:59:36;4.25;;;1.20;;
30539;SDS011;17321;46.312;4.776;2023-08-01T14:02:02;2.55;;;1.30;;
30539;SDS011;17321;46.312;4.776;2023-08-01T14:04:29;1.33;;;1.20;;
30539;SDS011;17321;46.312;4.776;2023-08-01T14:06:55;1.10;;;0.90;;
30539;SDS011;17321;46.312;4.776;2023-08-01T14:09:21;1.10;;;1.00;;
30539;SDS011;17321;46.312;4.776;2023-08-01T14:11:47;1.60;;;1.50;;
30539;SDS011;17321;46.312;4.776;2023-08-01T14:14:13;2.35;;;1.20;;
30539;SDS011;17321;46.312;4.776;2023-08-01T14:16:39;1.67;;;1.30;;
30539;SDS011;17321;46.312;4.776;2023-08-01T14:19:05;1.20;;;1.10;;
30539;SDS011;17321;46.312;4.776;2023-08-01T14:21:33;3.33;;;1.25;;
30539;SDS011;17321;46.312;4.776;2023-08-01T14:24:00;3.05;;;1.48;;
30539;SDS011;17321;46.312;4.776;2023-08-01T14:26:26;4.25;;;1.30;;
30539;SDS011;17321;46.312;4.776;2023-08-01T14:28:52;1.38;;;1.08;;
30539;SDS011;17321;46.312;4.776;2023-08-01T14:31:20;1.58;;;1.40;;
30539;SDS011;17321;46.312;4.776;2023-08-01T14:33:46;3.05;;;1.50;;
30539;SDS011;17321;46.312;4.776;2023-08-01T14:36:12;3.92;;;1.65;;
30539;SDS011;17321;46.312;4.776;2023-08-01T14:38:38;2.10;;;1.38;;
30539;SDS011;17321;46.312;4.776;2023-08-01T14:41:04;2.80;;;1.17;;
30539;SDS011;17321;46.312;4.776;2023-08-01T14:43:31;3.22;;;1.15;;
30539;SDS011;17321;46.312;4.776;2023-08-01T14:45:57;1.52;;;1.42;;
30539;SDS011;17321;46.312;4.776;2023-08-01T14:48:23;2.78;;;1.50;;
30539;SDS011;17321;46.312;4.776;2023-08-01T14:50:49;2.15;;;1.48;;